Etusivu
METAR-TAF:

METAR-TAF

Lentoasemat :

Córdoba, Argentiina

Leveyspiiri: 31-19S, Pituuspiiri: 064-13W, korkeus merenpinnasta: 484 m

Tämänhetkinen sää

Tämä raportti tehtiin 41 minuuttia sitten, kello 20.00 UTC
Tuuli 15 kn koillisesta
Lämpötila 19°C
Kosteus 24%
Ilmanpaine 1023 hPa
Näkyvyys 10 km tai enemmän
ei pilviä alle 1500 m:ssä eikä cumulonimbus-pilviä

METAR: SACO 152000Z 05015KT CAVOK 19/M02 Q1023 NOSIG

Aika: 17:41 (20:41 UTC)

Sääennuste

Tämä raportti tehtiin 3 tuntia ja 41 minuuttia sitten, kello 17.00 UTC
Ennuste voimassa 15. päivästä klo 18 UTC - 16. päivään klo 18 UTC
Tuuli 15 kn koillisesta
Näkyvyys 10 km tai enemmän
ei pilviä alle 1500 m:ssä eikä cumulonimbus-pilviä
Tulossa
16. päivästä klo 00 UTC - 16. päivään klo 03 UTC
Tuuli 10 kn pohjoisesta
Tulossa
16. päivästä klo 12 UTC - 16. päivään klo 14 UTC
Tuuli 15 kn pohjoisesta/koillisesta

TAF: SACO 151700Z 1518/1618 05015KT CAVOK TX20/1518Z TN03/1610Z BECMG 1600/1603 36010KT BECMG 1612/1614 02015KT

Säähavainnot ja -ennusteet yli 4000 lentoasemalta (METAR- ja TAF-raportit).

Käytössä olevat sääasemat on merkitty karttaan keltaisilla ja punaisilla pisteillä.

Aseta hiiri pisteen päälle nähdäksesi sääaseman nimen.

Klikkaa sitten nähdäksesi säähavainnot ja -ennusteet.

Kartan vaihtaminen: klikkaa mustalla rastilla varustettuja vihreitä pisteitä, niin voit zoomata sisään; viivalla varustettua vihreää pistettä, niin voit zoomata ulos tai vihreitä nuolia, niin pääset viereisille kartoille.


METAR-TAF: